Time;durP1;ratioP1;P1;durP2;ratioP2;P2;SDS_P1;SDS_P2;PMS_P1;PMS_P2;Temp;Humidity;BMP_temperature;BMP_pressure;BME280_temperature;BME280_humidity;BME280_pressure;Samples;Min_cycle;Max_cycle;Signal;HPM_P1;HPM_P2
2022/08/14 18:27:44;;;;;;;;;5.67;4.00;;;;;20.19;67.68;100126.22;5005555;27;45819;-61
2022/08/14 18:30:10;;;;;;;;;6.33;6.33;;;;;20.39;67.59;100125.28;5022471;27;45683;-63
2022/08/14 18:32:40;;;;;;;;;4.67;4.67;;;;;20.62;67.18;100142.81;5003131;27;45423;-62
2022/08/14 18:35:20;;;;;;;;;5.33;5.33;;;;;20.73;66.75;100145.81;5025322;27;45583;-62
2022/08/14 18:37:49;;;;;;;;;6.00;4.67;;;;;20.76;66.37;100142.97;5034077;27;46051;-62
2022/08/14 18:40:16;;;;;;;;;5.00;5.00;;;;;20.87;65.73;100156.63;4982138;27;45868;-62
2022/08/14 18:42:50;;;;;;;;;5.00;5.00;;;;;20.96;65.97;100150.00;4984072;27;45461;-63
2022/08/14 18:45:31;;;;;;;;;7.33;6.00;;;;;21.01;65.20;100139.97;4994519;27;45622;-63
2022/08/14 18:48:19;;;;;;;;;5.67;5.67;;;;;21.11;64.44;100138.53;4980154;27;45641;-63
2022/08/14 18:50:51;;;;;;;;;8.00;6.00;;;;;21.12;65.97;100142.94;5005292;27;45788;-67
2022/08/14 18:53:17;;;;;;;;;6.00;4.00;;;;;21.15;64.29;100145.44;5051592;27;45477;-68
2022/08/14 18:55:52;;;;;;;;;4.00;4.00;;;;;21.21;64.69;100138.06;4989636;27;45731;-69
2022/08/14 18:58:19;;;;;;;;;4.00;3.33;;;;;21.43;64.85;100148.50;4986691;27;46735;-71
2022/08/14 19:00:49;;;;;;;;;5.67;5.67;;;;;21.28;65.61;100161.66;5014459;27;45589;-69
2022/08/14 19:03:17;;;;;;;;;7.67;5.33;;;;;21.23;66.69;100165.50;5028992;27;45463;-66
2022/08/14 19:05:44;;;;;;;;;5.33;5.33;;;;;21.13;66.74;100167.78;4988675;27;45536;-66
2022/08/14 19:08:15;;;;;;;;;6.67;6.67;;;;;21.20;66.28;100174.50;5020238;27;46662;-67
2022/08/14 19:10:42;;;;;;;;;6.00;5.00;;;;;21.12;66.12;100168.72;4985863;27;45456;-68
2022/08/14 19:13:09;;;;;;;;;6.00;4.67;;;;;20.83;66.45;100135.56;4984143;27;45532;-68
2022/08/14 19:15:38;;;;;;;;;9.00;6.00;;;;;21.18;66.10;100173.72;5065436;27;45634;-67
2022/08/14 19:18:27;;;;;;;;;3.33;3.33;;;;;21.11;64.42;100164.31;5051567;27;46178;-69
2022/08/14 19:21:17;;;;;;;;;8.33;5.00;;;;;21.15;65.52;100181.88;5042739;27;45495;-68
2022/08/14 19:24:02;;;;;;;;;7.67;5.67;;;;;21.13;65.82;100181.94;5040778;27;46393;-68
2022/08/14 19:26:29;;;;;;;;;5.00;4.00;;;;;21.13;65.99;100176.63;5054198;27;46259;-67
2022/08/14 19:28:57;;;;;;;;;7.00;5.00;;;;;20.96;65.72;100142.00;5027695;27;46470;-68
2022/08/14 19:31:32;;;;;;;;;7.67;7.33;;;;;21.22;65.51;100187.75;5010799;27;46662;-68
2022/08/14 19:34:00;;;;;;;;;5.00;5.00;;;;;21.31;66.16;100196.13;5018307;27;45531;-69
2022/08/14 19:36:26;;;;;;;;;4.67;4.67;;;;;21.31;66.49;100197.94;5006163;27;45814;-69
2022/08/14 19:38:53;;;;;;;;;7.00;5.00;;;;;21.43;65.94;100208.00;4998328;27;46086;-68
2022/08/14 19:41:26;;;;;;;;;9.67;6.67;;;;;21.32;65.30;100181.88;4994894;27;45746;-68
2022/08/14 19:43:54;;;;;;;;;10.00;8.67;;;;;21.55;65.26;100210.03;4986702;27;45597;-67
2022/08/14 19:46:28;;;;;;;;;10.00;8.00;;;;;21.62;64.36;100201.69;5034085;27;45276;-72
2022/08/14 19:48:54;;;;;;;;;7.33;6.00;;;;;21.67;64.33;100200.53;5018440;28;46485;-68
2022/08/14 19:51:21;;;;;;;;;6.00;6.00;;;;;21.78;63.58;100213.28;5064955;27;45484;-69
2022/08/14 19:53:49;;;;;;;;;6.00;6.00;;;;;21.73;64.15;100210.84;4992301;27;45583;-68
2022/08/14 19:56:15;;;;;;;;;9.00;7.00;;;;;21.56;64.19;100176.25;5008187;27;45417;-70
2022/08/14 19:58:44;;;;;;;;;7.00;7.00;;;;;21.48;62.64;100175.78;5035102;27;45490;-69
2022/08/14 20:01:11;;;;;;;;;7.33;7.00;;;;;21.74;63.25;100212.59;4991415;27;45546;-69
2022/08/14 20:03:49;;;;;;;;;8.33;7.00;;;;;21.71;63.73;100223.41;5061055;27;45506;-71
2022/08/14 20:06:16;;;;;;;;;9.33;7.00;;;;;21.67;63.49;100227.19;4996518;27;45709;-69
2022/08/14 20:08:43;;;;;;;;;8.67;7.00;;;;;21.62;63.27;100228.34;5006731;27;46260;-69
2022/08/14 20:11:30;;;;;;;;;8.67;7.00;;;;;21.76;62.76;100232.03;5030809;27;45415;-69
2022/08/14 20:14:03;;;;;;;;;7.00;7.00;;;;;21.74;63.33;100241.91;4989065;27;45507;-69
2022/08/14 20:16:36;;;;;;;;;12.00;9.00;;;;;21.63;63.20;100230.94;4989477;27;45492;-70
2022/08/14 20:19:32;;;;;;;;;6.67;6.33;;;;;21.67;63.85;100239.66;4989709;27;45576;-68
2022/08/14 20:22:03;;;;;;;;;10.67;7.33;;;;;21.65;64.09;100241.53;4981253;27;45489;-69
2022/08/14 20:24:42;;;;;;;;;9.67;6.33;;;;;21.62;64.25;100242.56;4991475;27;45406;-68
2022/08/14 20:27:37;;;;;;;;;9.33;8.67;;;;;21.42;64.84;100222.25;5029824;27;45417;-69
2022/08/14 20:30:11;;;;;;;;;8.00;7.00;;;;;21.45;65.50;100237.19;5020470;27;45586;-71
2022/08/14 20:32:55;;;;;;;;;9.67;7.33;;;;;21.40;65.22;100232.09;5028982;27;45414;-68
2022/08/14 20:35:35;;;;;;;;;10.33;8.67;;;;;21.43;65.09;100225.75;5010020;27;45362;-70
2022/08/14 20:38:15;;;;;;;;;8.67;8.67;;;;;21.44;65.89;100215.03;4988907;27;45576;-70
2022/08/14 20:40:47;;;;;;;;;9.33;9.33;;;;;21.50;65.43;100211.22;4990884;27;45496;-70
2022/08/14 20:46:13;;;;;;;;;9.33;9.33;;;;;21.52;65.30;100217.28;5060611;27;45324;-68
2022/08/14 20:48:39;;;;;;;;;10.33;8.67;;;;;21.38;66.18;100191.34;5011662;27;45339;-68
2022/08/14 20:51:22;;;;;;;;;11.67;10.33;;;;;21.39;66.29;100203.72;5065816;27;45554;-68
2022/08/14 20:54:03;;;;;;;;;13.33;11.33;;;;;21.22;66.75;100190.41;5010027;27;45440;-69
2022/08/14 20:56:47;;;;;;;;;11.33;10.67;;;;;21.25;66.82;100187.59;4995423;27;45990;-69
2022/08/14 20:59:14;;;;;;;;;11.33;11.33;;;;;21.21;67.16;100154.91;5030327;27;45516;-71
2022/08/14 21:01:41;;;;;;;;;8.33;8.00;;;;;21.44;67.35;100184.88;5008769;27;45754;-70
2022/08/14 21:04:31;;;;;;;;;5.33;5.00;;;;;21.49;67.62;100175.69;5075696;27;45563;-69
2022/08/14 21:07:15;;;;;;;;;10.33;9.33;;;;;21.26;67.40;100142.25;5063655;27;45423;-71
2022/08/14 21:09:45;;;;;;;;;8.33;8.33;;;;;21.51;67.57;100172.97;5057112;27;45646;-71
2022/08/14 21:12:12;;;;;;;;;9.00;9.00;;;;;21.21;66.66;100106.97;4991581;27;46285;-79
2022/08/14 21:14:37;;;;;;;;;6.33;6.33;;;;;21.57;67.49;100164.66;5003675;27;45556;-65
2022/08/14 21:17:04;;;;;;;;;11.00;9.00;;;;;21.40;67.11;100138.88;5037662;27;45459;-67
2022/08/14 21:19:29;;;;;;;;;11.67;10.67;;;;;21.52;68.00;100164.91;5033491;27;45624;-69
2022/08/14 21:21:57;;;;;;;;;15.33;14.67;;;;;21.42;68.08;100163.63;5064810;27;46245;-69
2022/08/14 21:24:23;;;;;;;;;14.33;11.67;;;;;21.49;67.75;100190.81;5012528;27;45775;-73
2022/08/14 21:26:52;;;;;;;;;13.67;12.67;;;;;21.49;67.49;100182.84;5051055;27;45308;-75
2022/08/14 21:29:21;;;;;;;;;13.00;12.67;;;;;21.49;67.89;100186.34;5065678;27;45548;-68
2022/08/14 21:31:48;;;;;;;;;13.00;13.00;;;;;21.26;68.50;100171.53;5008744;27;46145;-70
2022/08/14 21:34:14;;;;;;;;;12.67;12.67;;;;;21.30;68.38;100191.72;4996121;27;45516;-66
2022/08/14 21:36:42;;;;;;;;;10.00;9.67;;;;;21.34;68.76;100190.63;4988684;27;45822;-65
2022/08/14 21:39:17;;;;;;;;;9.00;9.00;;;;;21.27;68.52;100186.56;4991369;27;45524;-68
2022/08/14 21:41:46;;;;;;;;;17.33;14.33;;;;;21.37;68.67;100193.13;5023078;27;45424;-65
2022/08/14 21:44:12;;;;;;;;;15.00;13.67;;;;;21.33;68.57;100185.38;4989352;27;45523;-66
2022/08/14 21:46:45;;;;;;;;;13.33;11.67;;;;;21.42;68.26;100195.59;5007815;27;45367;-66
2022/08/14 21:49:17;;;;;;;;;18.33;16.00;;;;;21.30;68.96;100188.22;4983485;27;45497;-67
2022/08/14 21:51:47;;;;;;;;;16.00;13.33;;;;;21.04;68.84;100139.81;5013311;27;45755;-63
2022/08/14 21:54:13;;;;;;;;;16.67;16.00;;;;;21.34;69.17;100193.31;5056632;27;45488;-63
2022/08/14 21:56:44;;;;;;;;;17.00;13.33;;;;;21.09;69.92;100180.38;5002499;27;45775;-65
2022/08/14 21:59:13;;;;;;;;;18.33;16.33;;;;;20.86;70.08;100148.75;5011935;27;45727;-67
2022/08/14 22:01:39;;;;;;;;;13.67;13.00;;;;;21.05;70.16;100178.81;5050644;27;45657;-69
2022/08/14 22:04:04;;;;;;;;;16.00;14.67;;;;;21.02;70.85;100184.28;4989154;27;45872;-71
2022/08/14 22:06:33;;;;;;;;;14.67;13.33;;;;;21.11;70.44;100185.63;5002817;27;45376;-67
2022/08/14 22:09:01;;;;;;;;;15.33;12.33;;;;;21.17;70.46;100196.84;5018280;27;45331;-68
2022/08/14 22:14:05;;;;;;;;;17.00;16.33;;;;;21.21;69.83;100180.69;5144337;22;45519;-68
2022/08/14 22:16:40;;;;;;;;;21.33;16.33;;;;;21.19;70.53;100183.44;4967755;28;45578;-68
2022/08/14 22:19:09;;;;;;;;;21.00;16.67;;;;;21.11;70.83;100174.97;4960394;28;45967;-67
2022/08/14 22:21:36;;;;;;;;;18.67;17.67;;;;;20.97;71.54;100162.34;4969322;28;45825;-67
2022/08/14 22:24:03;;;;;;;;;18.33;18.00;;;;;21.01;71.73;100173.72;4972317;28;45566;-66
2022/08/14 22:26:29;;;;;;;;;20.00;17.67;;;;;21.03;71.34;100180.69;4973215;28;45583;-71
2022/08/14 22:28:56;;;;;;;;;22.67;18.67;;;;;21.01;71.88;100176.38;4971889;28;45420;-69
2022/08/14 22:31:25;;;;;;;;;18.67;18.67;;;;;20.90;71.73;100168.91;4968878;28;45396;-68
2022/08/14 22:33:54;;;;;;;;;23.33;21.67;;;;;20.95;72.47;100181.09;4967848;28;45440;-68
2022/08/14 22:39:05;;;;;;;;;19.67;17.00;;;;;20.87;72.62;100155.78;4968065;28;45827;-68
2022/08/14 22:41:33;;;;;;;;;22.33;19.00;;;;;21.02;72.68;100170.09;4968685;28;46093;-68
2022/08/14 22:44:03;;;;;;;;;19.00;18.33;;;;;21.01;72.00;100174.56;4967372;28;45819;-68
2022/08/14 22:46:28;;;;;;;;;21.00;21.00;;;;;20.95;72.34;100172.22;4968026;28;45491;-71
2022/08/14 22:48:54;;;;;;;;;17.00;16.67;;;;;20.96;72.85;100172.16;4967810;28;45523;-71
2022/08/14 22:51:22;;;;;;;;;22.33;20.67;;;;;20.98;72.33;100161.44;4966668;28;47753;-69
2022/08/14 22:53:51;;;;;;;;;15.33;15.00;;;;;21.16;72.02;100171.13;4982673;28;45329;-67
2022/08/14 22:56:17;;;;;;;;;13.67;13.67;;;;;21.18;71.37;100158.59;4967198;28;45488;-72
2022/08/14 22:58:43;;;;;;;;;13.00;11.67;;;;;21.32;71.21;100163.22;4968342;28;45559;-67
2022/08/14 23:01:13;;;;;;;;;14.00;12.67;;;;;21.44;70.82;100175.06;4968241;28;45531;-71
2022/08/14 23:03:41;;;;;;;;;14.33;14.33;;;;;21.47;70.12;100163.41;4971467;28;45465;-70
2022/08/14 23:06:08;;;;;;;;;14.33;14.33;;;;;21.31;69.19;100123.38;4973684;28;45709;-66
2022/08/14 23:08:34;;;;;;;;;20.00;17.67;;;;;21.56;68.85;100177.09;4970145;28;45382;-68
2022/08/14 23:11:00;;;;;;;;;18.00;14.67;;;;;21.58;68.82;100174.34;4967369;28;46325;-65
2022/08/14 23:13:26;;;;;;;;;20.33;17.00;;;;;21.44;68.93;100163.56;4966636;28;45410;-67
2022/08/14 23:15:58;;;;;;;;;15.00;15.00;;;;;21.47;68.86;100161.59;4964488;28;45472;-66
2022/08/14 23:18:24;;;;;;;;;16.67;14.33;;;;;21.70;68.65;100180.84;4966855;28;45543;-65
2022/08/14 23:20:55;;;;;;;;;19.67;17.67;;;;;21.60;68.62;100162.66;4972723;28;46532;-69
2022/08/14 23:23:21;;;;;;;;;17.00;15.33;;;;;21.60;68.85;100165.34;4977036;28;45516;-67
2022/08/14 23:25:48;;;;;;;;;14.33;12.00;;;;;21.70;68.50;100179.03;4976770;28;45361;-66
2022/08/14 23:28:18;;;;;;;;;16.33;14.67;;;;;21.68;68.69;100167.59;4977212;28;45575;-71
2022/08/14 23:30:46;;;;;;;;;13.67;12.33;;;;;21.68;68.30;100151.59;4974148;28;46065;-69
2022/08/14 23:33:19;;;;;;;;;13.33;11.67;;;;;21.70;68.25;100163.03;4987014;28;45753;-73
2022/08/14 23:35:47;;;;;;;;;15.67;14.33;;;;;21.74;68.55;100159.28;4973232;28;45632;-66
2022/08/14 23:38:16;;;;;;;;;20.33;14.00;;;;;21.77;68.63;100161.78;4974236;28;45376;-71
2022/08/14 23:40:44;;;;;;;;;19.67;16.67;;;;;21.76;68.44;100160.06;4972467;28;46284;-68
2022/08/14 23:43:14;;;;;;;;;18.00;14.33;;;;;21.78;68.51;100154.63;4973245;28;45480;-71
2022/08/14 23:45:48;;;;;;;;;10.67;10.67;;;;;21.86;67.93;100155.09;4973608;28;45520;-72
2022/08/14 23:48:18;;;;;;;;;13.00;12.67;;;;;21.92;69.47;100156.56;4971906;28;45517;-66
2022/08/14 23:50:45;;;;;;;;;12.33;12.33;;;;;21.84;69.47;100151.66;4971819;28;46106;-71
2022/08/14 23:53:22;;;;;;;;;10.33;10.33;;;;;21.88;69.05;100147.00;4973253;28;45475;-65
2022/08/14 23:55:50;;;;;;;;;11.00;9.67;;;;;22.09;68.58;100148.50;4972828;28;45812;-65
2022/08/14 23:58:17;;;;;;;;;11.67;11.67;;;;;22.15;68.31;100153.50;4972633;28;45383;-69
